createdAt,value
2022-11-24T13:38:44.677Z,971.14
2022-11-24T13:39:50.114Z,971.07
2022-11-24T13:40:59.810Z,971.09
2022-11-24T13:41:44.825Z,971.07
2022-11-24T13:42:44.927Z,971.09
2022-11-24T13:43:44.860Z,971.17
2022-11-24T13:44:45.916Z,971.10
2022-11-24T13:45:44.985Z,971.13
2022-11-24T13:46:45.043Z,971.14
2022-11-24T13:47:46.940Z,971.10
2022-11-24T13:48:45.123Z,971.08
2022-11-24T13:49:45.166Z,971.11
2022-11-24T13:50:45.204Z,971.08
2022-11-24T13:51:45.226Z,971.06
2022-11-24T13:52:45.280Z,971.06
2022-11-24T13:53:46.429Z,971.04
2022-11-24T13:54:45.424Z,971.05
2022-11-24T13:55:45.852Z,971.03
2022-11-24T13:56:51.226Z,971.00
2022-11-24T13:57:45.508Z,971.03
2022-11-24T13:58:45.598Z,971.04
2022-11-24T13:59:45.614Z,971.07
2022-11-24T14:00:45.655Z,971.14
2022-11-24T14:01:45.797Z,971.12
2022-11-24T14:13:24.023Z,971.17
2022-11-24T14:13:55.900Z,971.16
2022-11-24T14:14:56.031Z,971.18
2022-11-24T14:15:55.959Z,971.15
2022-11-24T14:16:57.135Z,971.19
2022-11-24T14:17:58.690Z,971.11
2022-11-24T14:18:56.059Z,971.10
2022-11-24T14:19:57.026Z,971.17
2022-11-24T14:20:56.166Z,971.08
2022-11-24T14:21:57.028Z,971.13
2022-11-24T14:22:56.595Z,971.13
2022-11-24T14:23:56.377Z,971.09
2022-11-24T14:24:56.332Z,971.08
2022-11-24T14:25:56.371Z,971.10
2022-11-24T14:26:56.475Z,971.08
2022-11-24T14:27:57.049Z,971.13
2022-11-24T14:28:58.620Z,971.09
2022-11-24T14:29:56.591Z,971.09
2022-11-24T14:30:56.646Z,971.11
2022-11-24T14:31:56.703Z,971.11
2022-11-24T14:32:56.713Z,971.13
2022-11-24T14:33:56.764Z,971.13
2022-11-24T14:35:07.595Z,971.15
2022-11-24T14:35:57.600Z,971.10
2022-11-24T14:36:56.892Z,971.11
2022-11-24T14:37:56.922Z,971.11
2022-11-24T14:38:56.982Z,971.12
2022-11-24T14:39:57.526Z,971.16
2022-11-24T14:40:57.104Z,971.17
2022-11-24T14:41:57.116Z,971.13
2022-11-24T14:42:57.185Z,971.16
2022-11-24T14:43:57.248Z,971.16
2022-11-24T14:44:57.250Z,971.15
2022-11-24T14:45:57.302Z,971.17
2022-11-24T14:46:57.649Z,971.19
2022-11-24T14:47:57.397Z,971.22
2022-11-24T14:48:57.440Z,971.20
2022-11-24T14:49:57.579Z,971.17
2022-11-24T14:50:57.530Z,971.18
2022-11-24T14:51:57.599Z,971.19
2022-11-24T14:52:57.618Z,971.19
2022-11-24T14:53:57.693Z,971.23
2022-11-24T14:55:07.516Z,971.22
2022-11-24T14:55:57.797Z,971.25
2022-11-24T14:56:57.805Z,971.27
2022-11-24T14:57:57.877Z,971.27
2022-11-24T14:58:57.975Z,971.21
2022-11-24T14:59:57.936Z,971.19
2022-11-24T15:00:58.098Z,971.22
2022-11-24T15:01:58.086Z,971.24
2022-11-24T15:02:58.072Z,971.22
2022-11-24T15:03:58.179Z,971.19
2022-11-24T15:05:03.219Z,971.16
2022-11-24T15:05:58.209Z,971.17
2022-11-24T15:06:59.025Z,971.14
2022-11-24T15:08:00.213Z,971.16
2022-11-24T15:08:58.363Z,971.15
2022-11-24T15:09:59.033Z,971.15
2022-11-24T15:10:58.442Z,971.11
2022-11-24T15:12:13.033Z,971.10
2022-11-24T15:12:59.539Z,971.09
2022-11-24T15:13:58.645Z,971.10
2022-11-24T15:14:58.676Z,971.04
2022-11-24T15:16:02.479Z,971.07
2022-11-24T15:16:58.732Z,971.08
2022-11-24T15:17:58.773Z,971.08
2022-11-24T15:18:59.035Z,971.05
2022-11-24T15:20:01.292Z,971.04
2022-11-24T15:20:59.125Z,971.05
2022-11-24T15:22:01.028Z,971.03
2022-11-24T15:22:59.321Z,971.03
2022-11-24T15:23:59.759Z,971.07
2022-11-24T15:24:59.086Z,971.06
2022-11-24T15:25:59.165Z,971.03
2022-11-24T15:27:01.820Z,971.00
2022-11-24T15:27:59.412Z,970.96
2022-11-24T15:28:59.429Z,970.93
2022-11-24T15:29:59.312Z,970.94
2022-11-24T15:31:00.252Z,970.94
2022-11-24T15:31:59.450Z,970.94
2022-11-24T15:32:59.463Z,970.93
2022-11-24T15:34:04.157Z,970.92
2022-11-24T17:11:42.182Z,970.93
2022-11-24T17:12:42.196Z,970.96
2022-11-24T17:13:42.267Z,970.93
2022-11-24T17:14:52.705Z,970.95
2022-11-24T17:15:47.247Z,971.01
2022-11-24T17:16:42.528Z,970.93
2022-11-24T17:18:08.393Z,970.95
2022-11-24T17:18:50.877Z,970.94
2022-11-24T17:29:32.213Z,970.94
2022-11-24T17:30:21.195Z,970.95
2022-11-24T17:31:21.324Z,970.94
2022-11-24T17:32:21.263Z,970.90
2022-11-24T17:33:21.306Z,970.96
2022-11-24T17:34:21.347Z,970.88
2022-11-24T18:08:05.528Z,970.93
2022-11-24T18:09:05.546Z,970.97
2022-11-24T18:10:05.589Z,970.96
2022-11-24T18:11:05.618Z,970.91
2022-11-24T18:12:05.657Z,970.90
